PST,Max TemperatureF,Mean TemperatureF,Min TemperatureF,Max Dew PointF,MeanDew PointF,Min DewpointF,Max Humidity, Mean Humidity, Min Humidity, Max Sea Level PressureIn, Mean Sea Level PressureIn, Min Sea Level PressureIn, Max VisibilityMiles, Mean VisibilityMiles, Min VisibilityMiles, Max Wind SpeedMPH, Mean Wind SpeedMPH, Max Gust SpeedMPH,PrecipitationIn, CloudCover, Events, WindDirDegrees
2012-11-1,62,54,46,59,55,45,100,96,82,30.08,30.04,30.00,10,7,0,8,5,,0.30,6,Fog-Rain,221
2012-11-2,62,52,42,54,47,41,100,84,55,30.10,30.08,30.06,10,10,6,15,4,23,0.00,0,,355
2012-11-3,68,56,44,55,49,43,94,77,49,30.16,30.12,30.07,10,10,8,16,3,18,0.00,1,,358
2012-11-4,78,63,48,57,53,48,100,78,36,30.20,30.16,30.14,10,8,3,14,4,18,0.00,1,,347
2012-11-5,80,66,53,57,52,46,100,61,32,30.14,30.08,30.03,10,9,2,12,3,16,0.00,0,,32
2012-11-6,75,62,50,59,50,41,100,71,38,30.08,30.04,30.01,10,7,0,9,2,,0.00,2,Fog,334
2012-11-7,55,54,53,55,54,54,100,98,94,30.09,30.06,30.02,9,3,0,8,5,,0.00,8,Fog,335
2012-11-8,59,50,41,50,44,41,100,81,63,30.00,29.94,29.92,10,9,3,15,8,25,0.04,6,Rain,312
2012-11-9,55,48,41,45,41,39,100,74,54,30.01,29.96,29.91,10,10,6,14,7,22,0.00,4,Rain,342
2012-11-10,55,48,41,43,41,37,87,67,54,30.27,30.13,30.01,10,10,9,16,12,22,0.00,2,,348
2012-11-11,57,46,35,45,39,34,93,77,51,30.38,30.34,30.27,10,10,8,12,3,,0.00,0,,354
2012-11-12,62,50,37,45,38,34,93,67,34,30.38,30.32,30.26,10,10,10,12,3,17,0.00,0,,19
2012-11-13,69,56,44,45,36,28,71,44,28,30.26,30.15,30.07,10,10,10,12,4,,0.00,0,,19
2012-11-14,71,60,50,46,41,32,76,49,30,30.09,30.04,30.00,10,10,10,13,6,20,0.00,0,,59
2012-11-15,66,55,44,54,46,37,94,74,35,30.02,29.99,29.96,10,10,8,22,5,30,0.00,2,,173
2012-11-16,64,60,57,57,55,50,100,88,72,30.01,29.94,29.86,10,8,2,16,8,21,0.23,8,Rain,168
2012-11-17,59,56,53,57,56,52,100,97,88,30.03,29.92,29.82,10,5,0,24,12,30,0.35,8,Fog-Rain,200
2012-11-18,59,54,48,54,49,45,100,85,67,30.19,30.12,30.04,10,8,2,10,3,,0.01,5,,168
2012-11-19,62,56,50,54,48,43,88,72,52,30.25,30.20,30.18,10,10,5,16,8,21,0.00,5,,165
2012-11-20,62,60,57,57,57,54,100,93,82,30.18,30.11,30.06,10,6,1,21,14,28,0.21,8,Rain,184
2012-11-21,60,53,46,57,54,45,100,90,77,30.22,30.16,30.06,10,5,0,17,8,25,0.48,4,Fog-Rain,337
2012-11-22,62,53,44,50,46,41,100,80,55,30.27,30.22,30.19,10,9,5,14,5,,0.00,1,,8
2012-11-23,68,58,48,50,46,43,94,68,43,30.24,30.20,30.15,10,10,5,15,6,18,0.00,0,,11
2012-11-24,71,58,44,54,47,41,100,75,40,30.17,30.10,30.06,10,8,0,15,4,18,0.00,2,Fog,353
2012-11-25,59,52,44,54,52,45,100,95,82,30.05,30.00,29.95,10,6,1,15,8,17,0.00,5,,359
2012-11-26,55,48,41,52,48,41,100,92,82,30.09,30.04,29.98,10,6,0,10,3,,0.00,8,Fog,149
2012-11-27,59,56,53,54,50,46,88,78,63,30.12,30.06,29.98,10,10,9,18,10,23,0.00,7,,173
2012-11-28,60,58,57,57,54,46,94,85,63,30.06,29.95,29.82,10,5,1,32,16,47,0.32,7,Rain,174
2012-11-29,60,58,57,59,56,52,100,92,77,30.06,29.99,29.89,6,4,1,29,19,40,0.11,7,Rain,187
2012-11-30,59,58,57,59,58,57,100,98,94,30.03,29.92,29.84,5,2,0,32,20,44,1.58,8,Rain,195